createdAt,value
2019-01-20T00:00:47.833Z,97291.00
2019-01-20T00:03:17.758Z,97189.00
2019-01-20T00:05:47.122Z,97287.00
2019-01-20T00:08:16.500Z,97291.00
2019-01-20T00:10:45.881Z,97297.00
2019-01-20T00:13:15.247Z,97287.00
2019-01-20T00:15:46.291Z,97304.00
2019-01-20T00:18:15.666Z,97289.00
2019-01-20T00:20:45.042Z,97306.00
2019-01-20T00:23:14.438Z,97293.00
2019-01-20T00:25:43.814Z,97301.00
2019-01-20T00:28:13.184Z,97301.00
2019-01-20T00:30:42.587Z,97313.00
2019-01-20T00:33:11.947Z,97308.00
2019-01-20T00:35:41.320Z,97309.00
2019-01-20T00:38:10.712Z,97300.00
2019-01-20T00:40:40.068Z,97296.00
2019-01-20T00:43:09.444Z,97289.00
2019-01-20T00:45:39.161Z,97297.00
2019-01-20T00:48:08.538Z,97286.00
2019-01-20T00:50:37.903Z,97298.00
2019-01-20T00:53:07.363Z,97287.00
2019-01-20T00:55:36.724Z,97297.00
2019-01-20T00:58:06.159Z,97304.00
2019-01-20T01:00:35.659Z,97297.00
2019-01-20T01:03:05.168Z,97302.00
2019-01-20T01:05:34.905Z,97285.00
2019-01-20T01:08:04.743Z,97310.00
2019-01-20T01:10:34.111Z,97289.00
2019-01-20T01:13:04.638Z,97297.00
2019-01-20T01:15:34.183Z,97292.00
2019-01-20T01:18:03.637Z,97307.00
2019-01-20T01:20:33.017Z,97287.00
2019-01-20T01:23:02.400Z,97297.00
2019-01-20T01:25:31.773Z,97300.00
2019-01-20T01:28:01.135Z,97304.00
2019-01-20T01:30:30.530Z,97292.00
2019-01-20T01:32:59.956Z,97291.00
2019-01-20T01:35:29.327Z,97291.00
2019-01-20T01:37:59.842Z,97299.00
2019-01-20T01:40:29.207Z,97278.00
2019-01-20T01:42:58.582Z,97291.00
2019-01-20T01:45:27.997Z,97294.00
2019-01-20T01:47:57.354Z,97283.00
2019-01-20T01:50:26.754Z,97292.00
2019-01-20T01:52:56.416Z,97292.00
2019-01-20T02:14:46.649Z,97322.00
2019-01-20T02:17:16.984Z,97312.00
2019-01-20T02:19:46.334Z,97305.00
2019-01-20T02:22:15.719Z,97302.00
2019-01-20T02:24:45.072Z,97302.00
2019-01-20T02:27:14.495Z,97304.00
2019-01-20T02:29:43.876Z,97301.00
2019-01-20T02:32:13.229Z,97311.00
2019-01-20T02:34:42.600Z,97318.00
2019-01-20T02:37:12.377Z,97314.00
2019-01-20T02:39:41.738Z,97297.00
2019-01-20T02:42:11.108Z,97291.00
2019-01-20T02:44:40.485Z,97304.00
2019-01-20T02:47:09.837Z,97302.00
2019-01-20T02:49:39.234Z,97308.00
2019-01-20T02:52:08.577Z,97305.00
2019-01-20T02:54:37.941Z,97308.00
2019-01-20T02:57:07.314Z,97304.00
2019-01-20T02:59:37.104Z,97308.00
2019-01-20T03:02:06.631Z,97312.00
2019-01-20T03:04:35.977Z,97304.00
2019-01-20T03:07:05.558Z,97301.00
2019-01-20T03:09:34.920Z,97311.00
2019-01-20T03:12:04.450Z,97314.00
2019-01-20T03:14:33.829Z,97316.00
2019-01-20T03:17:04.702Z,97299.00
2019-01-20T03:19:34.124Z,97311.00
2019-01-20T03:22:03.990Z,97297.00
2019-01-20T03:24:33.340Z,97292.00
2019-01-20T03:27:02.773Z,97294.00
2019-01-20T03:29:32.165Z,97288.00
2019-01-20T03:32:01.534Z,97304.00
2019-01-20T03:34:30.906Z,97286.00
2019-01-20T03:37:00.288Z,97304.00
2019-01-20T03:39:29.672Z,97304.00
2019-01-20T03:41:59.061Z,97291.00
2019-01-20T03:44:28.476Z,97293.00
2019-01-20T03:46:57.859Z,97280.00
2019-01-20T03:49:27.257Z,97300.00
2019-01-20T03:51:56.631Z,97295.00
2019-01-20T03:54:26.002Z,97294.00
2019-01-20T03:56:55.361Z,97293.00
2019-01-20T03:59:24.804Z,97295.00
2019-01-20T04:01:54.186Z,97298.00
2019-01-20T04:04:23.555Z,97292.00
2019-01-20T04:06:53.314Z,97282.00
2019-01-20T04:09:22.675Z,97284.00
2019-01-20T04:11:52.049Z,97296.00
2019-01-20T04:14:21.439Z,97283.00
2019-01-20T04:16:50.814Z,97301.00
2019-01-20T04:19:20.736Z,97287.00
2019-01-20T04:21:50.122Z,97296.00
2019-01-20T04:24:19.486Z,97303.00
2019-01-20T04:26:48.845Z,97291.00
2019-01-20T04:29:18.978Z,97288.00
2019-01-20T04:31:48.335Z,97288.00
2019-01-20T04:34:17.708Z,97289.00
2019-01-20T04:36:47.095Z,97284.00
2019-01-20T04:39:16.482Z,97293.00
2019-01-20T04:41:45.864Z,97283.00
2019-01-20T04:44:15.293Z,97277.00
2019-01-20T04:46:44.657Z,97277.00
2019-01-20T04:49:14.026Z,97275.00
2019-01-20T04:51:43.752Z,97276.00
2019-01-20T04:54:13.682Z,97280.00
2019-01-20T04:56:43.066Z,97276.00
2019-01-20T04:59:12.443Z,97278.00
2019-01-20T05:01:41.820Z,97273.00
2019-01-20T05:04:11.177Z,97281.00
2019-01-20T05:06:40.573Z,97280.00
2019-01-20T05:09:09.951Z,97275.00
2019-01-20T05:11:39.324Z,97274.00
2019-01-20T05:14:09.391Z,97282.00
2019-01-20T05:16:38.752Z,97283.00
2019-01-20T05:19:09.744Z,97279.00
2019-01-20T05:21:40.241Z,97293.00
2019-01-20T05:24:09.602Z,97306.00
2019-01-20T05:26:38.961Z,97276.00
2019-01-20T05:29:08.354Z,97287.00
2019-01-20T05:31:37.745Z,97290.00
2019-01-20T05:34:07.098Z,97293.00
2019-01-20T05:36:37.204Z,97294.00
2019-01-20T05:39:08.095Z,97296.00
2019-01-20T05:41:37.477Z,97301.00
2019-01-20T05:44:06.848Z,97292.00
2019-01-20T05:46:36.225Z,97305.00
2019-01-20T05:49:05.648Z,97287.00
2019-01-20T05:51:35.030Z,97295.00
2019-01-20T05:54:04.482Z,97294.00
2019-01-20T05:56:33.865Z,97281.00
2019-01-20T05:59:03.267Z,97298.00
2019-01-20T06:01:32.635Z,97320.00
2019-01-20T06:04:02.001Z,97308.00
2019-01-20T06:06:33.980Z,97301.00
2019-01-20T06:09:02.528Z,97300.00
2019-01-20T06:11:31.892Z,97309.00
2019-01-20T06:14:01.277Z,97316.00
2019-01-20T06:16:30.652Z,97306.00
2019-01-20T06:19:00.067Z,97292.00
2019-01-20T06:21:29.898Z,97308.00
2019-01-20T06:24:02.845Z,97316.00
2019-01-20T06:26:32.216Z,97324.00
2019-01-20T06:29:01.594Z,97312.00
2019-01-20T06:31:30.964Z,97326.00
2019-01-20T06:34:00.336Z,97320.00
2019-01-20T06:36:29.727Z,97328.00
2019-01-20T06:38:59.178Z,97325.00
2019-01-20T06:41:28.574Z,97335.00
2019-01-20T06:43:58.318Z,97336.00
2019-01-20T06:46:27.708Z,97334.00
2019-01-20T06:48:57.134Z,97348.00
2019-01-20T06:51:26.527Z,97331.00
2019-01-20T06:53:55.894Z,97347.00
2019-01-20T06:56:25.274Z,97351.00
2019-01-20T06:58:54.677Z,97348.00
2019-01-20T07:01:24.056Z,97354.00
2019-01-20T07:03:53.426Z,97350.00
2019-01-20T07:06:23.301Z,97350.00
2019-01-20T07:08:52.737Z,97351.00
2019-01-20T07:11:22.104Z,97353.00
2019-01-20T07:13:51.496Z,97356.00
2019-01-20T07:16:20.929Z,97351.00
2019-01-20T07:18:50.280Z,97375.00
2019-01-20T07:21:19.657Z,97362.00
2019-01-20T07:23:49.013Z,97370.00
2019-01-20T07:26:19.561Z,97382.00
2019-01-20T07:28:49.269Z,97382.00
2019-01-20T07:31:18.609Z,97390.00
2019-01-20T07:33:47.968Z,97386.00
2019-01-20T07:36:17.350Z,97384.00
2019-01-20T07:38:46.710Z,97378.00
2019-01-20T07:41:16.076Z,97392.00
2019-01-20T07:43:45.454Z,97405.00
2019-01-20T07:46:14.812Z,97400.00
2019-01-20T07:48:44.172Z,97406.00
2019-01-20T07:51:13.575Z,97401.00
2019-01-20T07:53:42.927Z,97408.00
2019-01-20T07:56:12.291Z,97415.00
2019-01-20T07:58:41.663Z,97419.00
2019-01-20T08:01:11.044Z,97404.00
2019-01-20T08:03:40.418Z,97426.00
2019-01-20T08:06:09.798Z,97431.00
2019-01-20T08:08:39.181Z,97429.00
2019-01-20T08:11:08.551Z,97420.00
2019-01-20T08:13:37.930Z,97419.00
2019-01-20T08:16:07.380Z,97425.00
2019-01-20T08:18:36.753Z,97433.00
2019-01-20T08:21:06.147Z,97422.00
2019-01-20T08:23:35.478Z,97423.00
2019-01-20T08:26:04.982Z,97415.00
2019-01-20T08:28:34.969Z,97436.00
2019-01-20T08:31:04.496Z,97449.00
2019-01-20T08:33:33.880Z,97435.00
2019-01-20T08:36:03.775Z,97445.00
2019-01-20T08:38:34.994Z,97452.00
2019-01-20T08:41:04.523Z,97448.00
2019-01-20T08:43:33.924Z,97448.00
2019-01-20T08:46:16.649Z,97444.00
2019-01-20T08:48:46.037Z,97446.00
2019-01-20T08:51:15.542Z,97450.00
2019-01-20T08:53:44.899Z,97439.00
2019-01-20T08:56:14.914Z,97458.00
2019-01-20T08:58:44.282Z,97444.00
2019-01-20T09:01:13.663Z,97454.00
2019-01-20T09:03:43.046Z,97455.00
2019-01-20T09:06:12.494Z,97451.00
2019-01-20T09:08:42.008Z,97468.00
2019-01-20T09:11:11.544Z,97473.00
2019-01-20T09:13:41.285Z,97459.00
2019-01-20T09:16:10.803Z,97466.00
2019-01-20T09:18:40.199Z,97469.00
2019-01-20T09:21:09.572Z,97473.00
2019-01-20T09:23:38.996Z,97465.00
2019-01-20T09:26:09.318Z,97474.00
2019-01-20T09:28:38.685Z,97473.00
2019-01-20T09:31:08.065Z,97473.00
2019-01-20T09:33:37.553Z,97480.00
2019-01-20T09:36:06.981Z,97471.00
2019-01-20T09:38:36.383Z,97487.00
2019-01-20T09:41:05.953Z,97481.00
2019-01-20T09:43:35.339Z,97473.00
2019-01-20T09:46:04.826Z,97485.00
2019-01-20T09:48:34.167Z,97487.00
2019-01-20T09:51:03.562Z,97480.00
2019-01-20T09:53:32.913Z,97494.00
2019-01-20T09:56:02.322Z,97477.00
2019-01-20T09:58:31.668Z,97487.00
2019-01-20T10:01:01.066Z,97479.00
2019-01-20T10:03:30.557Z,97492.00
2019-01-20T10:05:59.949Z,97498.00
2019-01-20T10:08:29.325Z,97487.00
2019-01-20T10:10:58.685Z,97453.00
2019-01-20T10:13:28.118Z,97499.00
2019-01-20T10:15:57.566Z,97497.00
2019-01-20T10:18:26.954Z,97491.00
2019-01-20T10:20:56.324Z,97482.00
2019-01-20T10:23:25.705Z,97490.00
2019-01-20T10:25:55.401Z,97494.00
2019-01-20T10:28:24.840Z,97491.00
2019-01-20T10:30:54.612Z,97499.00
2019-01-20T10:33:23.991Z,97495.00
2019-01-20T10:35:55.051Z,97492.00
2019-01-20T10:38:24.395Z,97495.00
2019-01-20T10:40:53.759Z,97501.00
2019-01-20T10:43:23.123Z,97486.00
2019-01-20T10:45:52.518Z,97501.00
2019-01-20T10:48:22.244Z,97495.00
2019-01-20T10:50:51.635Z,97498.00
2019-01-20T10:53:20.990Z,97493.00
2019-01-20T10:55:50.373Z,97494.00
2019-01-20T10:58:19.745Z,97495.00
2019-01-20T11:00:49.111Z,97521.00
2019-01-20T11:03:18.534Z,97515.00
2019-01-20T11:05:47.887Z,97498.00
2019-01-20T11:08:17.463Z,97485.00
2019-01-20T11:10:47.192Z,97495.00
2019-01-20T11:13:16.556Z,97494.00
2019-01-20T11:15:45.920Z,97488.00
2019-01-20T11:18:15.298Z,97496.00
2019-01-20T11:20:44.662Z,97494.00
2019-01-20T11:23:14.192Z,97503.00
2019-01-20T11:25:43.587Z,97500.00
2019-01-20T11:28:12.964Z,97487.00
2019-01-20T11:30:42.389Z,97501.00
2019-01-20T11:33:12.221Z,97486.00
2019-01-20T11:35:41.601Z,97502.00
2019-01-20T11:38:10.962Z,97494.00
2019-01-20T11:40:40.344Z,97510.00
2019-01-20T11:43:09.730Z,97491.00
2019-01-20T11:45:39.165Z,97498.00
2019-01-20T11:48:08.679Z,97496.00
2019-01-20T11:50:38.050Z,97505.00
2019-01-20T11:53:07.547Z,97510.00
2019-01-20T11:55:36.961Z,97490.00
2019-01-20T11:58:06.401Z,97496.00
2019-01-20T12:00:36.771Z,97509.00
2019-01-20T12:03:06.481Z,97498.00
2019-01-20T12:05:36.511Z,97505.00
2019-01-20T12:08:06.484Z,97505.00
2019-01-20T12:10:36.158Z,97498.00
2019-01-20T12:13:07.221Z,97491.00
2019-01-20T12:15:36.902Z,97496.00
2019-01-20T12:18:06.762Z,97509.00
2019-01-20T12:20:36.204Z,97510.00
2019-01-20T12:23:06.093Z,97504.00
2019-01-20T12:25:35.525Z,97484.00
2019-01-20T12:28:05.132Z,97498.00
2019-01-20T12:30:38.363Z,97497.00
2019-01-20T12:33:08.360Z,97491.00
2019-01-20T12:35:38.897Z,97491.00
2019-01-20T12:38:08.261Z,97488.00
2019-01-20T12:40:44.399Z,97498.00
2019-01-20T12:43:13.925Z,97492.00
2019-01-20T12:45:43.344Z,97499.00
2019-01-20T12:48:13.138Z,97501.00
2019-01-20T12:50:42.486Z,97495.00
2019-01-20T12:53:11.930Z,97492.00
2019-01-20T12:55:41.302Z,97472.00
2019-01-20T12:58:11.276Z,97481.00
2019-01-20T13:00:40.635Z,97490.00
2019-01-20T13:03:10.054Z,97487.00
2019-01-20T13:05:39.475Z,97483.00
2019-01-20T13:08:08.793Z,97491.00
2019-01-20T13:10:38.884Z,97478.00
2019-01-20T13:13:08.251Z,97477.00
2019-01-20T13:15:37.617Z,97478.00
2019-01-20T13:18:07.054Z,97476.00
2019-01-20T13:20:36.442Z,97485.00
2019-01-20T13:23:06.259Z,97476.00
2019-01-20T13:25:35.627Z,97495.00
2019-01-20T13:28:05.075Z,97485.00
2019-01-20T13:30:34.429Z,97479.00
2019-01-20T13:33:03.913Z,97489.00
2019-01-20T13:35:33.265Z,97485.00
2019-01-20T13:38:07.388Z,97483.00
2019-01-20T13:40:47.354Z,97490.00
2019-01-20T13:43:16.825Z,97488.00
2019-01-20T13:45:46.274Z,97495.00
2019-01-20T13:48:15.671Z,97499.00
2019-01-20T13:50:45.116Z,97494.00
2019-01-20T13:53:14.486Z,97500.00
2019-01-20T13:55:43.933Z,97499.00
2019-01-20T13:58:13.319Z,97493.00
2019-01-20T14:00:42.714Z,97492.00
2019-01-20T14:03:12.342Z,97497.00
2019-01-20T14:05:41.691Z,97505.00
2019-01-20T14:08:11.041Z,97510.00
2019-01-20T14:10:40.450Z,97494.00
2019-01-20T14:13:09.813Z,97504.00
2019-01-20T14:15:39.183Z,97509.00
2019-01-20T14:18:08.552Z,97516.00
2019-01-20T14:20:37.891Z,97495.00
2019-01-20T14:23:07.594Z,97504.00
2019-01-20T14:25:36.964Z,97504.00
2019-01-20T14:28:06.318Z,97495.00
2019-01-20T14:30:35.659Z,97515.00
2019-01-20T14:33:05.062Z,97517.00
2019-01-20T14:35:34.405Z,97524.00
2019-01-20T14:38:03.825Z,97527.00
2019-01-20T14:40:33.560Z,97524.00
2019-01-20T14:43:03.177Z,97526.00
2019-01-20T14:45:32.526Z,97510.00
2019-01-20T14:48:01.905Z,97522.00
2019-01-20T14:50:31.317Z,97527.00
2019-01-20T14:53:00.671Z,97530.00
2019-01-20T14:55:30.436Z,97520.00
2019-01-20T14:57:59.773Z,97520.00
2019-01-20T15:00:33.394Z,97531.00
2019-01-20T15:03:02.914Z,97526.00
2019-01-20T15:05:32.327Z,97521.00
2019-01-20T15:08:01.883Z,97541.00
2019-01-20T15:10:32.088Z,97536.00
2019-01-20T15:13:01.625Z,97543.00
2019-01-20T15:15:35.349Z,97525.00
2019-01-20T15:18:06.135Z,97534.00
2019-01-20T15:20:35.633Z,97556.00
2019-01-20T15:23:05.353Z,97543.00
2019-01-20T15:25:35.403Z,97549.00
2019-01-20T15:28:05.286Z,97554.00
2019-01-20T15:30:35.269Z,97556.00
2019-01-20T15:33:06.774Z,97559.00
2019-01-20T15:35:36.377Z,97568.00
2019-01-20T15:38:06.594Z,97569.00
2019-01-20T15:40:36.333Z,97579.00
2019-01-20T15:43:06.575Z,97578.00
2019-01-20T15:45:35.947Z,97588.00
2019-01-20T15:48:05.730Z,97587.00
2019-01-20T15:50:35.151Z,97582.00
2019-01-20T15:53:04.868Z,97590.00
2019-01-20T15:55:34.315Z,97587.00
2019-01-20T15:58:03.750Z,97595.00
2019-01-20T16:00:33.577Z,97598.00
2019-01-20T16:03:03.424Z,97598.00
2019-01-20T16:05:32.844Z,97599.00
2019-01-20T16:08:02.179Z,97606.00
2019-01-20T16:10:31.563Z,97605.00
2019-01-20T16:13:00.909Z,97609.00
2019-01-20T16:15:33.806Z,97616.00
2019-01-20T16:18:03.267Z,97621.00
2019-01-20T16:20:33.158Z,97624.00
2019-01-20T16:23:02.503Z,97608.00
2019-01-20T16:25:34.987Z,97613.00
2019-01-20T16:28:04.788Z,97624.00
2019-01-20T16:30:37.043Z,97626.00
2019-01-20T16:33:06.888Z,97634.00
2019-01-20T16:35:36.335Z,97630.00
2019-01-20T16:38:06.025Z,97622.00
2019-01-20T16:40:35.395Z,97634.00
2019-01-20T16:43:05.331Z,97637.00
2019-01-20T16:45:41.966Z,97635.00
2019-01-20T16:48:10.837Z,97634.00
2019-01-20T16:50:40.341Z,97640.00
2019-01-20T16:53:09.771Z,97650.00
2019-01-20T16:55:39.130Z,97645.00
2019-01-20T16:58:08.494Z,97650.00
2019-01-20T17:00:40.756Z,97643.00
2019-01-20T17:03:10.262Z,97654.00
2019-01-20T17:05:39.686Z,97659.00
2019-01-20T17:08:09.237Z,97661.00
2019-01-20T17:10:40.917Z,97657.00
2019-01-20T17:13:10.812Z,97671.00
2019-01-20T17:15:42.237Z,97671.00
2019-01-20T17:18:12.930Z,97667.00
2019-01-20T17:20:42.477Z,97671.00
2019-01-20T17:23:11.952Z,97667.00
2019-01-20T17:25:41.262Z,97676.00
2019-01-20T17:28:10.627Z,97692.00
2019-01-20T17:30:40.595Z,97687.00
2019-01-20T17:33:11.594Z,97679.00
2019-01-20T17:35:40.969Z,97682.00
2019-01-20T17:38:10.636Z,97688.00
2019-01-20T17:40:40.035Z,97704.00
2019-01-20T17:43:09.429Z,97691.00
2019-01-20T17:45:47.599Z,97687.00
2019-01-20T17:48:13.433Z,97708.00
2019-01-20T17:50:43.336Z,97692.00
2019-01-20T17:53:12.925Z,97697.00
2019-01-20T17:55:42.312Z,97717.00
2019-01-20T17:58:11.730Z,97704.00
2019-01-20T18:00:42.796Z,97714.00
2019-01-20T18:03:12.318Z,97721.00
2019-01-20T18:05:41.990Z,97722.00
2019-01-20T18:08:11.436Z,97719.00
2019-01-20T18:10:40.844Z,97720.00
2019-01-20T18:13:10.438Z,97712.00
2019-01-20T18:15:39.861Z,97718.00
2019-01-20T18:18:09.424Z,97730.00
2019-01-20T18:20:38.792Z,97730.00
2019-01-20T18:23:08.134Z,97741.00
2019-01-20T18:25:37.642Z,97735.00
2019-01-20T18:28:07.139Z,97741.00
2019-01-20T18:30:36.599Z,97746.00
2019-01-20T18:33:05.959Z,97749.00
2019-01-20T18:35:35.400Z,97759.00
2019-01-20T18:38:04.989Z,97750.00
2019-01-20T18:40:34.376Z,97739.00
2019-01-20T18:43:03.867Z,97743.00
2019-01-20T18:45:34.734Z,97750.00
2019-01-20T18:48:04.220Z,97740.00
2019-01-20T18:50:38.657Z,97768.00
2019-01-20T18:53:08.102Z,97757.00
2019-01-20T18:55:37.663Z,97753.00
2019-01-20T18:58:07.379Z,97750.00
2019-01-20T19:00:41.339Z,97766.00
2019-01-20T19:03:10.779Z,97775.00
2019-01-20T19:05:40.281Z,97776.00
2019-01-20T19:08:09.644Z,97776.00
2019-01-20T19:10:39.781Z,97781.00
2019-01-20T19:13:09.173Z,97770.00
2019-01-20T19:15:38.534Z,97784.00
2019-01-20T19:18:07.917Z,97790.00
2019-01-20T19:20:37.317Z,97792.00
2019-01-20T19:23:06.857Z,97796.00
2019-01-20T19:25:36.337Z,97789.00
2019-01-20T19:28:06.165Z,97793.00
2019-01-20T19:30:36.470Z,97793.00
2019-01-20T19:33:06.494Z,97805.00
2019-01-20T19:35:35.865Z,97802.00
2019-01-20T19:38:05.521Z,97810.00
2019-01-20T19:40:34.942Z,97809.00
2019-01-20T19:43:04.386Z,97805.00
2019-01-20T19:45:33.821Z,97807.00
2019-01-20T19:48:03.275Z,97824.00
2019-01-20T19:50:32.711Z,97817.00
2019-01-20T19:53:02.436Z,97808.00
2019-01-20T19:55:33.471Z,97820.00
2019-01-20T19:58:02.976Z,97815.00
2019-01-20T20:00:33.298Z,97821.00
2019-01-20T20:03:02.688Z,97817.00
2019-01-20T20:05:32.258Z,97819.00
2019-01-20T20:08:01.700Z,97829.00
2019-01-20T20:10:31.146Z,97833.00
2019-01-20T20:13:00.604Z,97831.00
2019-01-20T20:15:30.124Z,97840.00
2019-01-20T20:17:59.555Z,97825.00
2019-01-20T20:20:28.981Z,97840.00
2019-01-20T20:22:58.454Z,97835.00
2019-01-20T20:25:28.017Z,97844.00
2019-01-20T20:27:57.526Z,97833.00
2019-01-20T20:30:30.438Z,97846.00
2019-01-20T20:33:00.202Z,97855.00
2019-01-20T20:35:29.567Z,97853.00
2019-01-20T20:37:58.978Z,97857.00
2019-01-20T20:40:28.364Z,97859.00
2019-01-20T20:42:58.189Z,97867.00
2019-01-20T20:45:28.201Z,97861.00
2019-01-20T20:47:57.640Z,97875.00
2019-01-20T20:50:27.026Z,97864.00
2019-01-20T20:52:56.392Z,97894.00
2019-01-20T20:55:26.777Z,97874.00
2019-01-20T20:57:56.117Z,97882.00
2019-01-20T21:00:35.847Z,97902.00
2019-01-20T21:03:09.630Z,97885.00
2019-01-20T21:05:39.076Z,97888.00
2019-01-20T21:08:08.534Z,97884.00
2019-01-20T21:10:37.895Z,97901.00
2019-01-20T21:13:07.448Z,97889.00
2019-01-20T21:15:36.814Z,97899.00
2019-01-20T21:18:06.185Z,97900.00
2019-01-20T21:20:35.560Z,97904.00
2019-01-20T21:23:11.806Z,97902.00
2019-01-20T21:25:36.047Z,97909.00
2019-01-20T21:28:05.564Z,97901.00
2019-01-20T21:30:34.930Z,97908.00
2019-01-20T21:33:04.372Z,97903.00
2019-01-20T21:35:33.746Z,97913.00
2019-01-20T21:38:06.844Z,97915.00
2019-01-20T21:40:34.400Z,97912.00
2019-01-20T21:43:03.757Z,97912.00
2019-01-20T21:45:33.220Z,97916.00
2019-01-20T21:48:02.600Z,97914.00
2019-01-20T21:50:32.471Z,97933.00
2019-01-20T21:53:01.857Z,97937.00
2019-01-20T21:55:31.221Z,97926.00
2019-01-20T21:58:01.993Z,97927.00
2019-01-20T22:00:31.657Z,97957.00
2019-01-20T22:03:01.035Z,97922.00
2019-01-20T22:05:30.397Z,97939.00
2019-01-20T22:07:59.796Z,97943.00
2019-01-20T22:10:29.222Z,97948.00
2019-01-20T22:12:58.579Z,97946.00
2019-01-20T22:15:27.969Z,97955.00
2019-01-20T22:17:57.300Z,97953.00
2019-01-20T22:20:26.676Z,97965.00
2019-01-20T22:22:56.138Z,97962.00
2019-01-20T22:25:25.494Z,97967.00
2019-01-20T22:27:54.864Z,97971.00
2019-01-20T22:30:26.161Z,97969.00
2019-01-20T22:32:55.599Z,97969.00
2019-01-20T22:35:24.981Z,97976.00
2019-01-20T22:37:54.376Z,97979.00
2019-01-20T22:40:23.740Z,97982.00
2019-01-20T22:42:53.188Z,97982.00
2019-01-20T22:45:25.561Z,97991.00
2019-01-20T22:47:54.924Z,97987.00
2019-01-20T22:50:24.586Z,97987.00
2019-01-20T22:52:53.960Z,97981.00
2019-01-20T22:55:23.343Z,97978.00
2019-01-20T22:57:52.706Z,97990.00
2019-01-20T23:00:46.377Z,97984.00
2019-01-20T23:03:15.886Z,97980.00
2019-01-20T23:05:45.381Z,97977.00
2019-01-20T23:08:14.797Z,97977.00
2019-01-20T23:10:44.125Z,97991.00
2019-01-20T23:13:13.568Z,97988.00
2019-01-20T23:15:42.913Z,97994.00
2019-01-20T23:18:12.358Z,97986.00
2019-01-20T23:20:41.720Z,97988.00
2019-01-20T23:23:11.449Z,97988.00
2019-01-20T23:25:40.814Z,98002.00
2019-01-20T23:28:10.249Z,98007.00
2019-01-20T23:30:39.723Z,97994.00
2019-01-20T23:33:09.081Z,97986.00
2019-01-20T23:35:38.466Z,97992.00
2019-01-20T23:38:07.837Z,97994.00
2019-01-20T23:40:37.193Z,97993.00
2019-01-20T23:43:06.584Z,97992.00
2019-01-20T23:45:36.534Z,97990.00
2019-01-20T23:48:06.027Z,98000.00
2019-01-20T23:50:35.386Z,97997.00
2019-01-20T23:53:05.031Z,98002.00
2019-01-20T23:55:35.445Z,97993.00
2019-01-20T23:58:05.664Z,97995.00
